sensor_id;sensor_type;location;lat;lon;timestamp;temperature;humidity
6164;DHT22;3114;48.362;10.994;2022-12-08T00:01:19;4.40;99.90
6164;DHT22;3114;48.362;10.994;2022-12-08T00:03:47;4.40;99.90
6164;DHT22;3114;48.362;10.994;2022-12-08T00:06:23;4.40;99.90
6164;DHT22;3114;48.362;10.994;2022-12-08T00:09:15;4.40;99.90
6164;DHT22;3114;48.362;10.994;2022-12-08T00:11:50;4.20;99.90
6164;DHT22;3114;48.362;10.994;2022-12-08T00:14:19;4.00;99.90
6164;DHT22;3114;48.362;10.994;2022-12-08T00:16:48;4.00;99.90
6164;DHT22;3114;48.362;10.994;2022-12-08T00:19:14;3.90;99.90
6164;DHT22;3114;48.362;10.994;2022-12-08T00:21:41;3.90;99.90
6164;DHT22;3114;48.362;10.994;2022-12-08T00:24:08;4.00;99.90
6164;DHT22;3114;48.362;10.994;2022-12-08T00:26:35;4.10;99.90
6164;DHT22;3114;48.362;10.994;2022-12-08T00:29:02;4.20;99.90
6164;DHT22;3114;48.362;10.994;2022-12-08T00:31:31;4.30;99.90
6164;DHT22;3114;48.362;10.994;2022-12-08T00:33:58;4.30;99.90
6164;DHT22;3114;48.362;10.994;2022-12-08T00:36:25;4.30;99.90
6164;DHT22;3114;48.362;10.994;2022-12-08T00:38:52;4.20;99.90
6164;DHT22;3114;48.362;10.994;2022-12-08T00:41:20;4.00;99.90
6164;DHT22;3114;48.362;10.994;2022-12-08T00:44:09;4.10;99.90
6164;DHT22;3114;48.362;10.994;2022-12-08T00:46:38;4.00;99.90
6164;DHT22;3114;48.362;10.994;2022-12-08T00:49:06;3.90;99.90
6164;DHT22;3114;48.362;10.994;2022-12-08T00:51:33;3.90;99.90
6164;DHT22;3114;48.362;10.994;2022-12-08T00:54:00;3.90;99.90
6164;DHT22;3114;48.362;10.994;2022-12-08T00:56:26;3.90;99.90
6164;DHT22;3114;48.362;10.994;2022-12-08T00:58:53;3.90;99.90
6164;DHT22;3114;48.362;10.994;2022-12-08T01:01:20;4.00;99.90
6164;DHT22;3114;48.362;10.994;2022-12-08T01:03:48;4.20;99.90
6164;DHT22;3114;48.362;10.994;2022-12-08T01:06:15;4.20;99.90
6164;DHT22;3114;48.362;10.994;2022-12-08T01:08:43;4.10;99.90
6164;DHT22;3114;48.362;10.994;2022-12-08T01:11:12;4.00;99.90
6164;DHT22;3114;48.362;10.994;2022-12-08T01:13:39;4.10;99.90
6164;DHT22;3114;48.362;10.994;2022-12-08T01:16:06;4.30;99.90
6164;DHT22;3114;48.362;10.994;2022-12-08T01:18:33;4.40;99.90
6164;DHT22;3114;48.362;10.994;2022-12-08T01:21:05;4.40;99.90
6164;DHT22;3114;48.362;10.994;2022-12-08T01:23:33;4.20;99.90
6164;DHT22;3114;48.362;10.994;2022-12-08T01:26:03;4.20;99.90
6164;DHT22;3114;48.362;10.994;2022-12-08T01:28:31;4.20;99.90
6164;DHT22;3114;48.362;10.994;2022-12-08T01:30:59;4.00;99.90
6164;DHT22;3114;48.362;10.994;2022-12-08T01:33:26;3.70;99.90
6164;DHT22;3114;48.362;10.994;2022-12-08T01:35:53;3.90;99.90
6164;DHT22;3114;48.362;10.994;2022-12-08T01:38:22;4.00;99.90
6164;DHT22;3114;48.362;10.994;2022-12-08T01:40:49;4.00;99.90
6164;DHT22;3114;48.362;10.994;2022-12-08T01:43:18;4.20;99.90
6164;DHT22;3114;48.362;10.994;2022-12-08T01:45:45;4.20;99.90
6164;DHT22;3114;48.362;10.994;2022-12-08T01:48:15;4.40;99.90
6164;DHT22;3114;48.362;10.994;2022-12-08T01:50:46;4.50;99.90
6164;DHT22;3114;48.362;10.994;2022-12-08T01:53:16;4.50;99.90
6164;DHT22;3114;48.362;10.994;2022-12-08T01:55:49;4.50;99.90
6164;DHT22;3114;48.362;10.994;2022-12-08T01:58:19;4.50;99.90
6164;DHT22;3114;48.362;10.994;2022-12-08T02:00:49;4.20;99.90
6164;DHT22;3114;48.362;10.994;2022-12-08T02:03:20;4.20;99.90
6164;DHT22;3114;48.362;10.994;2022-12-08T02:05:48;4.20;99.90
6164;DHT22;3114;48.362;10.994;2022-12-08T02:08:15;4.50;99.90
6164;DHT22;3114;48.362;10.994;2022-12-08T02:10:42;4.70;99.90
6164;DHT22;3114;48.362;10.994;2022-12-08T02:13:13;4.80;99.90
6164;DHT22;3114;48.362;10.994;2022-12-08T02:15:48;4.70;99.90
6164;DHT22;3114;48.362;10.994;2022-12-08T02:18:30;4.70;99.90
6164;DHT22;3114;48.362;10.994;2022-12-08T02:21:04;4.60;99.90
6164;DHT22;3114;48.362;10.994;2022-12-08T02:23:39;4.20;99.90
6164;DHT22;3114;48.362;10.994;2022-12-08T02:26:29;4.30;99.90
6164;DHT22;3114;48.362;10.994;2022-12-08T02:29:24;4.30;99.90
6164;DHT22;3114;48.362;10.994;2022-12-08T02:32:09;4.30;99.90
6164;DHT22;3114;48.362;10.994;2022-12-08T02:34:47;4.30;99.90
6164;DHT22;3114;48.362;10.994;2022-12-08T02:37:27;4.10;99.90
6164;DHT22;3114;48.362;10.994;2022-12-08T02:40:00;4.40;99.90
6164;DHT22;3114;48.362;10.994;2022-12-08T02:42:34;4.40;99.90
6164;DHT22;3114;48.362;10.994;2022-12-08T02:45:07;4.30;99.90
6164;DHT22;3114;48.362;10.994;2022-12-08T02:47:35;4.10;99.90
6164;DHT22;3114;48.362;10.994;2022-12-08T02:50:04;4.20;99.90
6164;DHT22;3114;48.362;10.994;2022-12-08T02:52:43;4.10;99.90
6164;DHT22;3114;48.362;10.994;2022-12-08T02:55:22;4.00;99.90
6164;DHT22;3114;48.362;10.994;2022-12-08T02:58:12;4.00;99.90
6164;DHT22;3114;48.362;10.994;2022-12-08T03:00:55;4.00;99.90
6164;DHT22;3114;48.362;10.994;2022-12-08T03:03:32;4.20;99.90
6164;DHT22;3114;48.362;10.994;2022-12-08T03:06:11;4.20;99.90
6164;DHT22;3114;48.362;10.994;2022-12-08T03:08:49;4.20;99.90
6164;DHT22;3114;48.362;10.994;2022-12-08T03:11:20;4.10;99.90
6164;DHT22;3114;48.362;10.994;2022-12-08T03:13:52;4.00;99.90
6164;DHT22;3114;48.362;10.994;2022-12-08T03:16:22;3.90;99.90
6164;DHT22;3114;48.362;10.994;2022-12-08T03:18:53;4.00;99.90
6164;DHT22;3114;48.362;10.994;2022-12-08T03:21:23;4.00;99.90
6164;DHT22;3114;48.362;10.994;2022-12-08T03:23:54;3.80;99.90
6164;DHT22;3114;48.362;10.994;2022-12-08T03:26:26;3.90;99.90
6164;DHT22;3114;48.362;10.994;2022-12-08T03:28:55;4.00;99.90
6164;DHT22;3114;48.362;10.994;2022-12-08T03:31:24;4.10;99.90
6164;DHT22;3114;48.362;10.994;2022-12-08T03:33:54;4.20;99.90
6164;DHT22;3114;48.362;10.994;2022-12-08T03:36:24;4.20;99.90
6164;DHT22;3114;48.362;10.994;2022-12-08T03:38:53;4.00;99.90
6164;DHT22;3114;48.362;10.994;2022-12-08T03:41:20;4.20;99.90
6164;DHT22;3114;48.362;10.994;2022-12-08T03:43:49;4.60;99.90
6164;DHT22;3114;48.362;10.994;2022-12-08T03:46:17;4.70;99.90
6164;DHT22;3114;48.362;10.994;2022-12-08T03:48:44;4.50;99.90
6164;DHT22;3114;48.362;10.994;2022-12-08T03:51:11;4.60;99.90
6164;DHT22;3114;48.362;10.994;2022-12-08T03:53:39;4.70;99.90
6164;DHT22;3114;48.362;10.994;2022-12-08T03:56:14;4.50;99.90
6164;DHT22;3114;48.362;10.994;2022-12-08T03:58:42;4.70;99.90
6164;DHT22;3114;48.362;10.994;2022-12-08T04:01:09;4.90;99.90
6164;DHT22;3114;48.362;10.994;2022-12-08T04:03:36;5.00;99.90
6164;DHT22;3114;48.362;10.994;2022-12-08T04:06:03;5.20;99.90
6164;DHT22;3114;48.362;10.994;2022-12-08T04:08:30;5.20;99.90
6164;DHT22;3114;48.362;10.994;2022-12-08T04:10:58;5.30;99.90
6164;DHT22;3114;48.362;10.994;2022-12-08T04:13:25;5.30;99.90
6164;DHT22;3114;48.362;10.994;2022-12-08T04:15:52;5.30;99.90
6164;DHT22;3114;48.362;10.994;2022-12-08T04:18:19;5.40;99.90
6164;DHT22;3114;48.362;10.994;2022-12-08T04:20:46;5.20;99.90
6164;DHT22;3114;48.362;10.994;2022-12-08T04:23:13;4.80;99.90
6164;DHT22;3114;48.362;10.994;2022-12-08T04:25:40;5.00;99.90
6164;DHT22;3114;48.362;10.994;2022-12-08T04:28:08;5.10;99.90
6164;DHT22;3114;48.362;10.994;2022-12-08T04:30:35;4.90;99.90
6164;DHT22;3114;48.362;10.994;2022-12-08T04:33:01;5.00;99.90
6164;DHT22;3114;48.362;10.994;2022-12-08T04:35:28;5.10;99.90
6164;DHT22;3114;48.362;10.994;2022-12-08T04:37:55;5.20;99.90
6164;DHT22;3114;48.362;10.994;2022-12-08T04:40:22;5.20;99.90
6164;DHT22;3114;48.362;10.994;2022-12-08T04:42:49;5.20;99.90
6164;DHT22;3114;48.362;10.994;2022-12-08T04:45:17;5.20;99.90
6164;DHT22;3114;48.362;10.994;2022-12-08T04:47:44;5.10;99.90
6164;DHT22;3114;48.362;10.994;2022-12-08T04:50:11;5.20;99.90
6164;DHT22;3114;48.362;10.994;2022-12-08T04:52:38;5.20;99.90
6164;DHT22;3114;48.362;10.994;2022-12-08T04:55:06;5.20;99.90
6164;DHT22;3114;48.362;10.994;2022-12-08T04:57:33;5.10;99.90
6164;DHT22;3114;48.362;10.994;2022-12-08T05:00:00;5.10;99.90
6164;DHT22;3114;48.362;10.994;2022-12-08T05:02:28;5.10;99.90
6164;DHT22;3114;48.362;10.994;2022-12-08T05:04:55;5.00;99.90
6164;DHT22;3114;48.362;10.994;2022-12-08T05:07:21;4.90;99.90
6164;DHT22;3114;48.362;10.994;2022-12-08T05:09:48;4.60;99.90
6164;DHT22;3114;48.362;10.994;2022-12-08T05:12:15;4.40;99.90
6164;DHT22;3114;48.362;10.994;2022-12-08T05:14:42;4.60;99.90
6164;DHT22;3114;48.362;10.994;2022-12-08T05:17:09;4.70;99.90
6164;DHT22;3114;48.362;10.994;2022-12-08T05:19:37;4.70;99.90
6164;DHT22;3114;48.362;10.994;2022-12-08T05:22:04;4.30;99.90
6164;DHT22;3114;48.362;10.994;2022-12-08T05:24:31;4.50;99.90
6164;DHT22;3114;48.362;10.994;2022-12-08T05:26:58;4.60;99.90
6164;DHT22;3114;48.362;10.994;2022-12-08T05:29:25;4.70;99.90
6164;DHT22;3114;48.362;10.994;2022-12-08T05:31:52;4.80;99.90
6164;DHT22;3114;48.362;10.994;2022-12-08T05:34:19;4.80;99.90
6164;DHT22;3114;48.362;10.994;2022-12-08T05:36:47;4.70;99.90
6164;DHT22;3114;48.362;10.994;2022-12-08T05:39:14;4.60;99.90
6164;DHT22;3114;48.362;10.994;2022-12-08T05:41:41;4.50;99.90
6164;DHT22;3114;48.362;10.994;2022-12-08T05:44:08;4.60;99.90
6164;DHT22;3114;48.362;10.994;2022-12-08T05:46:35;4.50;99.90
6164;DHT22;3114;48.362;10.994;2022-12-08T05:49:02;4.60;99.90
6164;DHT22;3114;48.362;10.994;2022-12-08T05:51:29;4.60;99.90
6164;DHT22;3114;48.362;10.994;2022-12-08T05:53:58;4.60;99.90
6164;DHT22;3114;48.362;10.994;2022-12-08T05:56:25;4.50;99.90
6164;DHT22;3114;48.362;10.994;2022-12-08T05:58:51;4.50;99.90
6164;DHT22;3114;48.362;10.994;2022-12-08T06:01:20;4.50;99.90
6164;DHT22;3114;48.362;10.994;2022-12-08T06:03:47;4.50;99.90
6164;DHT22;3114;48.362;10.994;2022-12-08T06:06:14;4.50;99.90
6164;DHT22;3114;48.362;10.994;2022-12-08T06:08:41;4.40;99.90
6164;DHT22;3114;48.362;10.994;2022-12-08T06:11:15;4.40;99.90
6164;DHT22;3114;48.362;10.994;2022-12-08T06:13:42;4.40;99.90
6164;DHT22;3114;48.362;10.994;2022-12-08T06:16:09;4.40;99.90
6164;DHT22;3114;48.362;10.994;2022-12-08T06:18:36;4.40;99.90
6164;DHT22;3114;48.362;10.994;2022-12-08T06:21:04;4.40;99.90
6164;DHT22;3114;48.362;10.994;2022-12-08T06:23:31;4.40;99.90
6164;DHT22;3114;48.362;10.994;2022-12-08T06:26:00;4.30;99.90
6164;DHT22;3114;48.362;10.994;2022-12-08T06:28:29;4.30;99.90
6164;DHT22;3114;48.362;10.994;2022-12-08T06:30:56;3.90;99.90
6164;DHT22;3114;48.362;10.994;2022-12-08T06:33:23;4.00;99.90
6164;DHT22;3114;48.362;10.994;2022-12-08T06:35:50;3.90;99.90
6164;DHT22;3114;48.362;10.994;2022-12-08T06:38:17;3.80;99.90
6164;DHT22;3114;48.362;10.994;2022-12-08T06:40:52;3.90;99.90
6164;DHT22;3114;48.362;10.994;2022-12-08T06:43:19;4.20;99.90
6164;DHT22;3114;48.362;10.994;2022-12-08T06:45:47;4.30;99.90
6164;DHT22;3114;48.362;10.994;2022-12-08T06:48:14;4.40;99.90
6164;DHT22;3114;48.362;10.994;2022-12-08T06:50:41;4.40;99.90
6164;DHT22;3114;48.362;10.994;2022-12-08T06:53:10;4.40;99.90
6164;DHT22;3114;48.362;10.994;2022-12-08T06:55:37;4.50;99.90
6164;DHT22;3114;48.362;10.994;2022-12-08T06:58:07;4.40;99.90
6164;DHT22;3114;48.362;10.994;2022-12-08T07:00:34;4.40;99.90
6164;DHT22;3114;48.362;10.994;2022-12-08T07:03:03;4.40;99.90
6164;DHT22;3114;48.362;10.994;2022-12-08T07:05:29;4.50;99.90
6164;DHT22;3114;48.362;10.994;2022-12-08T07:07:56;4.50;99.90
6164;DHT22;3114;48.362;10.994;2022-12-08T07:10:23;4.50;99.90
6164;DHT22;3114;48.362;10.994;2022-12-08T07:12:50;4.60;99.90
6164;DHT22;3114;48.362;10.994;2022-12-08T07:15:17;4.50;99.90
6164;DHT22;3114;48.362;10.994;2022-12-08T07:17:44;4.60;99.90
6164;DHT22;3114;48.362;10.994;2022-12-08T07:20:12;4.60;99.90
6164;DHT22;3114;48.362;10.994;2022-12-08T07:22:39;4.70;99.90
6164;DHT22;3114;48.362;10.994;2022-12-08T07:25:07;4.70;99.90
6164;DHT22;3114;48.362;10.994;2022-12-08T07:27:34;4.80;99.90
6164;DHT22;3114;48.362;10.994;2022-12-08T07:30:01;4.70;99.90
6164;DHT22;3114;48.362;10.994;2022-12-08T07:32:27;4.80;99.90
6164;DHT22;3114;48.362;10.994;2022-12-08T07:34:54;4.40;99.90
6164;DHT22;3114;48.362;10.994;2022-12-08T07:37:22;4.50;99.90
6164;DHT22;3114;48.362;10.994;2022-12-08T07:39:49;4.60;99.90
6164;DHT22;3114;48.362;10.994;2022-12-08T07:42:16;4.80;99.90
6164;DHT22;3114;48.362;10.994;2022-12-08T07:44:43;4.80;99.90
6164;DHT22;3114;48.362;10.994;2022-12-08T07:47:10;4.80;99.90
6164;DHT22;3114;48.362;10.994;2022-12-08T07:49:36;4.80;99.90
6164;DHT22;3114;48.362;10.994;2022-12-08T07:52:03;4.70;99.90
6164;DHT22;3114;48.362;10.994;2022-12-08T07:54:31;4.50;99.90
6164;DHT22;3114;48.362;10.994;2022-12-08T07:56:59;4.60;99.90
6164;DHT22;3114;48.362;10.994;2022-12-08T07:59:28;4.80;99.90
6164;DHT22;3114;48.362;10.994;2022-12-08T08:01:54;4.90;99.90
6164;DHT22;3114;48.362;10.994;2022-12-08T08:04:21;4.90;99.90
6164;DHT22;3114;48.362;10.994;2022-12-08T08:06:48;5.00;99.90
6164;DHT22;3114;48.362;10.994;2022-12-08T08:09:15;5.10;99.90
6164;DHT22;3114;48.362;10.994;2022-12-08T08:11:43;5.10;99.90
6164;DHT22;3114;48.362;10.994;2022-12-08T08:14:10;5.20;99.90
6164;DHT22;3114;48.362;10.994;2022-12-08T08:16:37;5.20;99.90
6164;DHT22;3114;48.362;10.994;2022-12-08T08:19:06;5.10;99.90
6164;DHT22;3114;48.362;10.994;2022-12-08T08:21:33;5.10;99.90
6164;DHT22;3114;48.362;10.994;2022-12-08T08:24:00;5.20;99.90
6164;DHT22;3114;48.362;10.994;2022-12-08T08:26:26;5.20;99.90
6164;DHT22;3114;48.362;10.994;2022-12-08T08:28:55;5.20;99.90
6164;DHT22;3114;48.362;10.994;2022-12-08T08:31:23;5.40;99.90
6164;DHT22;3114;48.362;10.994;2022-12-08T08:33:50;5.00;99.90
6164;DHT22;3114;48.362;10.994;2022-12-08T08:36:17;5.20;99.90
6164;DHT22;3114;48.362;10.994;2022-12-08T08:38:44;5.30;99.90
6164;DHT22;3114;48.362;10.994;2022-12-08T08:41:11;5.30;99.90
6164;DHT22;3114;48.362;10.994;2022-12-08T08:43:37;5.30;99.90
6164;DHT22;3114;48.362;10.994;2022-12-08T08:46:06;5.50;99.90
6164;DHT22;3114;48.362;10.994;2022-12-08T08:48:34;5.50;99.90
6164;DHT22;3114;48.362;10.994;2022-12-08T08:51:07;5.50;99.90
6164;DHT22;3114;48.362;10.994;2022-12-08T08:53:34;5.60;99.90
6164;DHT22;3114;48.362;10.994;2022-12-08T08:56:01;5.50;99.90
6164;DHT22;3114;48.362;10.994;2022-12-08T08:58:29;5.50;99.90
6164;DHT22;3114;48.362;10.994;2022-12-08T09:00:56;5.30;99.90
6164;DHT22;3114;48.362;10.994;2022-12-08T09:03:24;5.40;99.90
6164;DHT22;3114;48.362;10.994;2022-12-08T09:05:51;5.70;99.90
6164;DHT22;3114;48.362;10.994;2022-12-08T09:08:18;5.60;99.90
6164;DHT22;3114;48.362;10.994;2022-12-08T09:10:45;5.60;99.90
6164;DHT22;3114;48.362;10.994;2022-12-08T09:13:12;5.50;99.90
6164;DHT22;3114;48.362;10.994;2022-12-08T09:15:39;5.60;99.90
6164;DHT22;3114;48.362;10.994;2022-12-08T09:18:06;5.20;99.90
6164;DHT22;3114;48.362;10.994;2022-12-08T09:20:34;5.20;99.90
6164;DHT22;3114;48.362;10.994;2022-12-08T09:23:01;5.30;99.90
6164;DHT22;3114;48.362;10.994;2022-12-08T09:25:28;5.40;99.90
6164;DHT22;3114;48.362;10.994;2022-12-08T09:27:55;5.40;99.90
6164;DHT22;3114;48.362;10.994;2022-12-08T09:30:22;5.50;99.90
6164;DHT22;3114;48.362;10.994;2022-12-08T09:32:49;5.50;99.90
6164;DHT22;3114;48.362;10.994;2022-12-08T09:35:15;5.50;99.90
6164;DHT22;3114;48.362;10.994;2022-12-08T09:37:44;5.50;99.90
6164;DHT22;3114;48.362;10.994;2022-12-08T09:40:15;5.50;99.90
6164;DHT22;3114;48.362;10.994;2022-12-08T09:42:48;5.50;99.90
6164;DHT22;3114;48.362;10.994;2022-12-08T09:45:17;5.50;99.90
6164;DHT22;3114;48.362;10.994;2022-12-08T09:47:47;5.60;99.90
6164;DHT22;3114;48.362;10.994;2022-12-08T09:50:21;5.60;99.90
6164;DHT22;3114;48.362;10.994;2022-12-08T09:52:59;5.60;99.90
6164;DHT22;3114;48.362;10.994;2022-12-08T09:55:39;5.60;99.90
6164;DHT22;3114;48.362;10.994;2022-12-08T09:58:14;5.70;99.90
6164;DHT22;3114;48.362;10.994;2022-12-08T10:00:43;5.70;99.90
6164;DHT22;3114;48.362;10.994;2022-12-08T10:03:11;5.60;99.90
6164;DHT22;3114;48.362;10.994;2022-12-08T10:05:42;5.70;99.90
6164;DHT22;3114;48.362;10.994;2022-12-08T10:08:17;5.70;99.90
6164;DHT22;3114;48.362;10.994;2022-12-08T10:10:47;5.70;99.90
6164;DHT22;3114;48.362;10.994;2022-12-08T10:13:24;5.70;99.90
6164;DHT22;3114;48.362;10.994;2022-12-08T10:16:00;5.70;99.90
6164;DHT22;3114;48.362;10.994;2022-12-08T10:18:32;5.80;99.90
6164;DHT22;3114;48.362;10.994;2022-12-08T10:21:10;5.80;99.90
6164;DHT22;3114;48.362;10.994;2022-12-08T10:23:42;5.70;99.90
6164;DHT22;3114;48.362;10.994;2022-12-08T10:26:12;5.70;99.90
6164;DHT22;3114;48.362;10.994;2022-12-08T10:28:39;5.60;99.90
6164;DHT22;3114;48.362;10.994;2022-12-08T10:31:13;5.70;99.90
6164;DHT22;3114;48.362;10.994;2022-12-08T10:33:41;5.80;99.90
6164;DHT22;3114;48.362;10.994;2022-12-08T10:36:09;5.80;99.90
6164;DHT22;3114;48.362;10.994;2022-12-08T10:38:39;5.80;99.90
6164;DHT22;3114;48.362;10.994;2022-12-08T10:41:11;5.90;99.90
6164;DHT22;3114;48.362;10.994;2022-12-08T10:43:42;6.00;99.90
6164;DHT22;3114;48.362;10.994;2022-12-08T10:46:11;5.80;99.90
6164;DHT22;3114;48.362;10.994;2022-12-08T10:48:47;5.90;99.90
6164;DHT22;3114;48.362;10.994;2022-12-08T10:51:22;5.90;99.90
6164;DHT22;3114;48.362;10.994;2022-12-08T10:53:51;5.90;99.90
6164;DHT22;3114;48.362;10.994;2022-12-08T10:56:18;5.80;99.90
6164;DHT22;3114;48.362;10.994;2022-12-08T10:58:46;5.90;99.90
6164;DHT22;3114;48.362;10.994;2022-12-08T11:01:16;5.90;99.90
6164;DHT22;3114;48.362;10.994;2022-12-08T11:03:46;6.10;99.90
6164;DHT22;3114;48.362;10.994;2022-12-08T11:06:17;6.20;99.90
6164;DHT22;3114;48.362;10.994;2022-12-08T11:08:47;6.20;99.90
6164;DHT22;3114;48.362;10.994;2022-12-08T11:11:17;6.10;99.90
6164;DHT22;3114;48.362;10.994;2022-12-08T11:13:47;6.10;99.90
6164;DHT22;3114;48.362;10.994;2022-12-08T11:16:16;6.20;99.90
6164;DHT22;3114;48.362;10.994;2022-12-08T11:18:45;6.00;99.90
6164;DHT22;3114;48.362;10.994;2022-12-08T11:21:14;6.10;99.90
6164;DHT22;3114;48.362;10.994;2022-12-08T11:23:45;6.10;99.90
6164;DHT22;3114;48.362;10.994;2022-12-08T11:26:19;6.10;99.90
6164;DHT22;3114;48.362;10.994;2022-12-08T11:28:48;6.20;99.90
6164;DHT22;3114;48.362;10.994;2022-12-08T11:31:24;6.30;99.90
6164;DHT22;3114;48.362;10.994;2022-12-08T11:33:53;6.40;99.90
6164;DHT22;3114;48.362;10.994;2022-12-08T11:36:22;6.30;99.90
6164;DHT22;3114;48.362;10.994;2022-12-08T11:38:54;6.40;99.90
6164;DHT22;3114;48.362;10.994;2022-12-08T11:41:25;6.40;99.90
6164;DHT22;3114;48.362;10.994;2022-12-08T11:43:57;6.30;99.90
6164;DHT22;3114;48.362;10.994;2022-12-08T11:46:31;6.20;99.90
6164;DHT22;3114;48.362;10.994;2022-12-08T11:49:02;6.20;99.90
6164;DHT22;3114;48.362;10.994;2022-12-08T11:51:32;6.30;99.90
6164;DHT22;3114;48.362;10.994;2022-12-08T11:54:14;6.30;99.90
6164;DHT22;3114;48.362;10.994;2022-12-08T11:56:46;6.30;99.90
6164;DHT22;3114;48.362;10.994;2022-12-08T11:59:22;6.30;99.90
6164;DHT22;3114;48.362;10.994;2022-12-08T12:01:50;6.20;99.90
6164;DHT22;3114;48.362;10.994;2022-12-08T12:04:21;6.20;99.90
6164;DHT22;3114;48.362;10.994;2022-12-08T12:07:22;6.20;99.90
6164;DHT22;3114;48.362;10.994;2022-12-08T12:13:03;6.30;99.90
6164;DHT22;3114;48.362;10.994;2022-12-08T12:15:52;6.30;99.90
6164;DHT22;3114;48.362;10.994;2022-12-08T12:18:27;6.40;99.90
6164;DHT22;3114;48.362;10.994;2022-12-08T12:20:59;6.50;99.90
6164;DHT22;3114;48.362;10.994;2022-12-08T12:23:34;6.60;99.90
6164;DHT22;3114;48.362;10.994;2022-12-08T12:26:04;6.70;99.90
6164;DHT22;3114;48.362;10.994;2022-12-08T12:28:40;6.50;99.90
6164;DHT22;3114;48.362;10.994;2022-12-08T12:31:12;6.60;99.90
6164;DHT22;3114;48.362;10.994;2022-12-08T12:33:41;6.60;99.90
6164;DHT22;3114;48.362;10.994;2022-12-08T12:36:09;6.60;99.90
6164;DHT22;3114;48.362;10.994;2022-12-08T12:38:39;6.70;99.90
6164;DHT22;3114;48.362;10.994;2022-12-08T12:41:33;6.60;99.90
6164;DHT22;3114;48.362;10.994;2022-12-08T12:44:23;6.60;99.90
6164;DHT22;3114;48.362;10.994;2022-12-08T12:46:58;6.30;99.90
6164;DHT22;3114;48.362;10.994;2022-12-08T12:50:03;6.10;99.90
6164;DHT22;3114;48.362;10.994;2022-12-08T12:52:52;6.10;99.90
6164;DHT22;3114;48.362;10.994;2022-12-08T12:55:27;6.20;99.90
6164;DHT22;3114;48.362;10.994;2022-12-08T12:57:55;6.50;99.90
6164;DHT22;3114;48.362;10.994;2022-12-08T13:00:25;6.60;99.90
6164;DHT22;3114;48.362;10.994;2022-12-08T13:02:53;6.60;99.90
6164;DHT22;3114;48.362;10.994;2022-12-08T13:05:23;6.70;99.90
6164;DHT22;3114;48.362;10.994;2022-12-08T13:07:53;6.70;99.90
6164;DHT22;3114;48.362;10.994;2022-12-08T13:10:24;6.80;99.90
6164;DHT22;3114;48.362;10.994;2022-12-08T13:13:03;6.90;99.90
6164;DHT22;3114;48.362;10.994;2022-12-08T13:15:35;6.90;99.90
6164;DHT22;3114;48.362;10.994;2022-12-08T13:18:03;6.70;99.90
6164;DHT22;3114;48.362;10.994;2022-12-08T13:20:40;6.70;99.90
6164;DHT22;3114;48.362;10.994;2022-12-08T13:23:23;6.70;99.90
6164;DHT22;3114;48.362;10.994;2022-12-08T13:26:15;6.70;99.90
6164;DHT22;3114;48.362;10.994;2022-12-08T13:31:49;6.60;99.90
6164;DHT22;3114;48.362;10.994;2022-12-08T13:34:20;6.70;99.90
6164;DHT22;3114;48.362;10.994;2022-12-08T13:37:04;6.60;99.90
6164;DHT22;3114;48.362;10.994;2022-12-08T13:39:40;6.60;99.90
6164;DHT22;3114;48.362;10.994;2022-12-08T13:42:16;6.60;99.90
6164;DHT22;3114;48.362;10.994;2022-12-08T13:44:47;6.50;99.90
6164;DHT22;3114;48.362;10.994;2022-12-08T13:47:21;6.60;99.90
6164;DHT22;3114;48.362;10.994;2022-12-08T13:49:53;6.60;99.90
6164;DHT22;3114;48.362;10.994;2022-12-08T13:52:31;6.60;99.90
6164;DHT22;3114;48.362;10.994;2022-12-08T13:55:01;6.60;99.90
6164;DHT22;3114;48.362;10.994;2022-12-08T13:57:31;6.60;99.90
6164;DHT22;3114;48.362;10.994;2022-12-08T13:59:59;6.60;99.90
6164;DHT22;3114;48.362;10.994;2022-12-08T14:02:31;6.50;99.90
6164;DHT22;3114;48.362;10.994;2022-12-08T14:04:59;6.40;99.90
6164;DHT22;3114;48.362;10.994;2022-12-08T14:07:27;6.40;99.90
6164;DHT22;3114;48.362;10.994;2022-12-08T14:09:54;6.40;99.90
6164;DHT22;3114;48.362;10.994;2022-12-08T14:12:22;6.30;99.90
6164;DHT22;3114;48.362;10.994;2022-12-08T14:14:51;6.40;99.90
6164;DHT22;3114;48.362;10.994;2022-12-08T14:17:21;6.30;99.90
6164;DHT22;3114;48.362;10.994;2022-12-08T14:19:55;6.30;99.90
6164;DHT22;3114;48.362;10.994;2022-12-08T14:22:22;6.30;99.90
6164;DHT22;3114;48.362;10.994;2022-12-08T14:24:50;6.20;99.90
6164;DHT22;3114;48.362;10.994;2022-12-08T14:27:19;6.20;99.90
6164;DHT22;3114;48.362;10.994;2022-12-08T14:29:48;6.30;99.90
6164;DHT22;3114;48.362;10.994;2022-12-08T14:32:27;6.30;99.90
6164;DHT22;3114;48.362;10.994;2022-12-08T14:34:59;6.30;99.90
6164;DHT22;3114;48.362;10.994;2022-12-08T14:37:28;6.30;99.90
6164;DHT22;3114;48.362;10.994;2022-12-08T14:39:58;6.40;99.90
6164;DHT22;3114;48.362;10.994;2022-12-08T14:42:27;6.40;99.90
6164;DHT22;3114;48.362;10.994;2022-12-08T14:44:57;6.40;99.90
6164;DHT22;3114;48.362;10.994;2022-12-08T14:47:28;6.40;99.90
6164;DHT22;3114;48.362;10.994;2022-12-08T14:49:57;6.30;99.90
6164;DHT22;3114;48.362;10.994;2022-12-08T14:52:24;6.30;99.90
6164;DHT22;3114;48.362;10.994;2022-12-08T14:54:52;6.30;99.90
6164;DHT22;3114;48.362;10.994;2022-12-08T14:57:19;6.20;99.90
6164;DHT22;3114;48.362;10.994;2022-12-08T14:59:47;6.20;99.90
6164;DHT22;3114;48.362;10.994;2022-12-08T15:02:24;6.10;99.90
6164;DHT22;3114;48.362;10.994;2022-12-08T15:04:58;6.10;99.90
6164;DHT22;3114;48.362;10.994;2022-12-08T15:07:28;6.20;99.90
6164;DHT22;3114;48.362;10.994;2022-12-08T15:10:16;6.20;99.90
6164;DHT22;3114;48.362;10.994;2022-12-08T15:12:56;6.20;99.90
6164;DHT22;3114;48.362;10.994;2022-12-08T15:15:24;6.20;99.90
6164;DHT22;3114;48.362;10.994;2022-12-08T15:17:57;6.20;99.90
6164;DHT22;3114;48.362;10.994;2022-12-08T15:20:33;6.20;99.90
6164;DHT22;3114;48.362;10.994;2022-12-08T15:23:04;6.20;99.90
6164;DHT22;3114;48.362;10.994;2022-12-08T15:25:32;6.20;99.90
6164;DHT22;3114;48.362;10.994;2022-12-08T15:28:01;6.20;99.90
6164;DHT22;3114;48.362;10.994;2022-12-08T15:30:28;6.20;99.90
6164;DHT22;3114;48.362;10.994;2022-12-08T15:32:56;6.20;99.90
6164;DHT22;3114;48.362;10.994;2022-12-08T15:35:23;6.20;99.90
6164;DHT22;3114;48.362;10.994;2022-12-08T15:37:51;6.10;99.90
6164;DHT22;3114;48.362;10.994;2022-12-08T15:40:19;6.10;99.90
6164;DHT22;3114;48.362;10.994;2022-12-08T15:42:47;6.10;99.90
6164;DHT22;3114;48.362;10.994;2022-12-08T15:45:15;6.20;99.90
6164;DHT22;3114;48.362;10.994;2022-12-08T15:47:43;6.10;99.90
6164;DHT22;3114;48.362;10.994;2022-12-08T15:50:14;6.10;99.90
6164;DHT22;3114;48.362;10.994;2022-12-08T15:52:42;6.00;99.90
6164;DHT22;3114;48.362;10.994;2022-12-08T15:55:13;6.00;99.90
6164;DHT22;3114;48.362;10.994;2022-12-08T15:57:41;5.90;99.90
6164;DHT22;3114;48.362;10.994;2022-12-08T16:00:24;5.90;99.90
6164;DHT22;3114;48.362;10.994;2022-12-08T16:02:52;5.90;99.90
6164;DHT22;3114;48.362;10.994;2022-12-08T16:05:19;5.80;99.90
6164;DHT22;3114;48.362;10.994;2022-12-08T16:07:47;5.90;99.90
6164;DHT22;3114;48.362;10.994;2022-12-08T16:10:16;5.90;99.90
6164;DHT22;3114;48.362;10.994;2022-12-08T16:12:43;5.90;99.90
6164;DHT22;3114;48.362;10.994;2022-12-08T16:15:29;5.80;99.90
6164;DHT22;3114;48.362;10.994;2022-12-08T16:17:57;5.90;99.90
6164;DHT22;3114;48.362;10.994;2022-12-08T16:20:24;5.80;99.90
6164;DHT22;3114;48.362;10.994;2022-12-08T16:22:51;5.80;99.90
6164;DHT22;3114;48.362;10.994;2022-12-08T16:25:20;5.80;99.90
6164;DHT22;3114;48.362;10.994;2022-12-08T16:27:48;6.00;99.90